Create Custom Reports and Graphics: Custom Report

Latest Observations

MWA Stations

15 Minute Data | America/Los_Angeles
as of 5/9/26 7:08 PM PDT
Station Date Time Temp (°F) RH (%) Dew Pt (°F) Wind Dir (°) Wind Spd (mph) Wind Gust (mph) Solar Rad (W/m2) Pressure (mb) Daily Min Temp (°F) Daily Max Temp (°F) Daily Max Wind (mph) Daily Rain (In) Yest MinT (°F) Yest MaxT (°F) Yest MaxGst (mph) Yest Precip (In) MinBV Day (V)
MWA Office 5/9/26 1900 81.8   1.5 23   1 40.4   2.4 SW | 232 9.2   1.8 15.1   5.5 114   3 1,006.9   1.5 48.8   2.7 95.4   2.1 21.5   2.0 0.00 51.5 93.3 23.4 0.00 12.4   0.0
MWA OPS 5/9/26 1900 80.8   1.9 27   0 43.5   1.4 SW | 236 9.1   2.0 17.5   1.8 88   4 1,006.3   1.9 52.9   1.1 91.2   0.8 22.1   2.0 0.00 53.9 90.4 24.1 0.00 12.8   0.0
LV-PS 5/9/26 1900 89.4   1.8 8   8 19.0   16.2 WNW | 286 8.7   0.3 13.2   3.5 122   7 1,003.7   1.4 60.2   1.1 94.5   0.6 21.0   1.5 0.00 59.2 93.9 22.6 0.00 12.8   0.0
JV-PS 5/9/26 1900 90.4   1.1 8   3 20.8   6.4 WNW | 303 9.3   0.7 14.5   3.1 109   1 1,003.3   1.2 61.5   5.4 94.6   1.1 19.3   2.6 0.00 66.9 93.5 21.9 0.00 12.9   0.0
BDVWA 5/9/26 1900 84.7   1.4 16   2 33.5   1.3 SSW | 207 8.0   1.6 13.4   2.4 110   1 1,003.9   1.3 64.3   4.1 91.3   0.7 21.0   1.1 0.00 68.2 90.6 20.0 0.00 12.8   0.0
Newberry Springs 5/9/26 1900 96.6   1.8 9   7 27.3   13.8 NW | 310 8.0   4.2 14.7   8.5 114   12 1,003.0   1.1 66.4   0.7 99.7   0.8 24.3   4.4 0.00 67.1 98.9 28.7 0.00 12.9   0.0
Pinon Hills 5/9/26 1900 79.4   6.3 27   16 42.8   6.7 WNW | 292 3.8   1.8 7.7   4.6 118   2 1,004.9   3.3 49.7   4.5 85.4   1.5 14.2   2.9 0.00 53.6 83.9 17.1 0.00 12.8   0.0
Helendale 5/9/26 1900 87.9   0.9 19   4 40.5   3.6 SSW | 192 13.3   3.1 21.5   1.5 100   0 1,004.5   1.4 52.3   7.8 96.6   1.2 21.5   3.5 0.00 60.0 95.4 25.0 0.00 12.7   0.0
Lenwood 5/9/26 1900 91.3   2.7 14   4 34.9   5.0 S | 186 12.9   0.3 19.7   1.8 128   4 1,003.6   2.2 56.5   4.9 97.8   0.4 19.7   1.8 0.00 61.4 98.2 23.2 0.00 12.4   0.4
Oak Hills 5/9/26 1900 69.7   2.6 45   11 47.2   3.3 SSW | 209 11.1   2.2 19.5   3.3 99   6 1,008.7   2.2 54.2   2.2 81.6   1.6 21.9   0.2 0.00 56.4 80.0 21.7 0.00 13.0   0.0
Pipes Wash Canyon 5/9/26 1900 79.5   1.2 18   3 32.5   2.9 WNW | 283 1.4   1.2 3.7   3.5 89   1 1,004.3   1.3 61.7   1.4 86.9   0.7 16.7   4.6 0.00 63.1 86.2 21.3 0.00 12.9   0.0
Max     96.6 45 47.2 - 13.3 21.5 128 1,008.7 66.4 99.7 24.3 0.00 68.2 98.9 28.7 0.00 13.0
Avg     84.7 19 34.8 - 8.6 14.6 108 1,004.8 - - - - - - - - -
Min     69.7 8 19.0 - 1.4 3.7 88 1,003.0 48.8 81.6 14.2 0.00 51.5 80.0 17.1 0.00 12.4

Latest Observations

Map

15 Minute Data

Rainfall & ETo

MWA Stations

15 Minute Data | America/Los_Angeles
as of 5/9/26 7:08 PM PDT
Station Date Time Latest Rain (In) Daily Rain (In) Yest Precip (In) Month Precip (In) Season Precip (In) Daily ETo (in) Yest ETo (In) 7 Day ETo (in)
MWA Office 5/9/26 1900 0.00 0.00 0.00 0.00 4.30 0.262 0.29 1.63
MWA OPS 5/9/26 1900 0.00 0.00 0.00 0.00 9.32 0.285 0.30 1.64
LV-PS 5/9/26 1900 0.00 0.00 0.00 0.00 3.63 0.291 0.33 1.88
JV-PS 5/9/26 1900 0.00 0.00 0.00 0.02 6.39 0.284 0.36 1.91
BDVWA 5/9/26 1900 0.00 0.00 0.00 0.03 6.39 0.285 0.31 1.79
Newberry Springs 5/9/26 1900 0.00 0.00 0.00 0.00 2.70 0.325 0.41 2.13
Pinon Hills 5/9/26 1900 0.00 0.00 0.00 0.00 15.51 0.247 0.26 1.54
Helendale 5/9/26 1900 0.00 0.00 0.00 0.00 5.55 0.266 0.33 1.86
Lenwood 5/9/26 1900 0.00 0.00 0.00 0.00 4.24 0.264 0.33 1.94
Oak Hills 5/9/26 1900 0.00 0.00 0.00 0.00 14.72 0.257 0.26 1.38
Pipes Wash Canyon 5/9/26 1900 0.00 0.00 0.00 0.00 13.92 0.262 0.28 1.54
Max     0.00 0.00 0.00 0.03 15.51 0.325 0.41 2.13
Avg     0.00 - - - - - - -
Min     0.00 0.00 0.00 0.00 2.70 0.247 0.26 1.38